createdAt,value
2018-01-28T03:38:39.649Z,0
2018-01-28T03:39:20.238Z,0
2018-01-28T03:40:00.819Z,0
2018-01-28T03:40:41.390Z,0
2018-01-28T03:41:21.975Z,0
2018-01-28T03:42:02.574Z,0
2018-01-28T03:42:43.153Z,0
2018-01-28T03:43:23.732Z,0
2018-01-28T03:44:04.365Z,0
2018-01-28T03:44:44.948Z,0
2018-01-28T03:45:25.566Z,0
2018-01-28T03:46:06.151Z,0
2018-01-28T03:46:46.768Z,0
2018-01-28T03:47:27.410Z,0
2018-01-28T03:48:07.992Z,0
2018-01-28T03:48:48.581Z,0
2018-01-28T03:49:29.181Z,0
2018-01-28T03:50:09.786Z,0
2018-01-28T03:50:50.405Z,0
2018-01-28T03:51:31.008Z,0
2018-01-28T03:52:11.600Z,0
2018-01-28T03:52:52.189Z,0
2018-01-28T03:53:32.796Z,0
2018-01-28T03:54:13.407Z,0
2018-01-28T03:54:54.000Z,0
2018-01-28T03:55:34.630Z,0
2018-01-28T03:56:15.218Z,0
2018-01-28T03:56:55.837Z,0
2018-01-28T03:57:36.431Z,0
2018-01-28T03:58:17.020Z,0
2018-01-28T03:58:57.622Z,0
2018-01-28T03:59:38.230Z,0
2018-01-28T04:00:18.859Z,0
2018-01-28T04:00:59.463Z,0
2018-01-28T04:01:40.087Z,0
2018-01-28T04:02:20.697Z,0
2018-01-28T04:03:01.325Z,0
2018-01-28T04:03:41.929Z,0
2018-01-28T04:04:22.535Z,0
2018-01-28T04:05:03.149Z,0
2018-01-28T04:05:43.753Z,0
2018-01-28T04:06:24.372Z,0
2018-01-28T04:07:04.983Z,0
2018-01-28T04:07:45.585Z,0
2018-01-28T04:08:26.222Z,0
2018-01-28T04:09:06.834Z,0
2018-01-28T04:09:47.485Z,0
2018-01-28T04:10:28.121Z,0
2018-01-28T04:11:08.746Z,0
2018-01-28T04:11:49.373Z,0
2018-01-28T04:12:29.974Z,0
2018-01-28T04:13:10.576Z,0
2018-01-28T04:13:51.231Z,0
2018-01-28T04:14:31.828Z,0
2018-01-28T04:15:12.433Z,0
2018-01-28T04:15:53.054Z,0
2018-01-28T04:16:33.672Z,0
2018-01-28T04:17:14.252Z,0
2018-01-28T04:17:54.854Z,0
2018-01-28T04:18:35.452Z,0
2018-01-28T04:19:16.060Z,0
2018-01-28T04:19:56.654Z,0
2018-01-28T04:20:37.275Z,0
2018-01-28T04:21:17.899Z,0
2018-01-28T04:21:58.468Z,0
2018-01-28T04:22:39.043Z,0
2018-01-28T04:23:19.635Z,0
2018-01-28T04:24:00.264Z,0
2018-01-28T04:24:40.870Z,0
2018-01-28T04:25:21.478Z,0
2018-01-28T04:26:02.111Z,0
2018-01-28T04:26:42.720Z,0
2018-01-28T04:27:23.367Z,0
2018-01-28T04:28:03.972Z,0
2018-01-28T04:28:44.567Z,0
2018-01-28T04:29:25.158Z,0
2018-01-28T04:30:05.752Z,0
2018-01-28T04:30:46.342Z,0
2018-01-28T04:31:26.971Z,0
2018-01-28T04:32:07.623Z,0
2018-01-28T04:32:48.244Z,0
2018-01-28T04:33:28.854Z,0
2018-01-28T04:34:09.460Z,0
2018-01-28T04:34:50.041Z,0
2018-01-28T04:35:30.647Z,0
2018-01-28T04:36:11.232Z,0
2018-01-28T04:36:51.849Z,0
2018-01-28T04:37:32.446Z,0
2018-01-28T04:38:13.014Z,0
2018-01-28T04:38:53.607Z,0
2018-01-28T04:39:34.213Z,0
2018-01-28T04:40:14.800Z,0
2018-01-28T04:40:55.392Z,0
2018-01-28T04:41:36.032Z,0
2018-01-28T04:42:16.643Z,0
2018-01-28T04:42:57.245Z,0
2018-01-28T04:43:37.886Z,0
2018-01-28T04:44:18.529Z,0
2018-01-28T04:44:59.116Z,0
2018-01-28T04:45:39.728Z,0
2018-01-28T04:46:20.329Z,0
2018-01-28T04:47:00.939Z,0
2018-01-28T04:47:41.514Z,0
2018-01-28T04:48:22.141Z,0
2018-01-28T04:49:02.755Z,0
2018-01-28T04:49:43.341Z,0
2018-01-28T04:50:23.922Z,0
2018-01-28T04:51:04.539Z,0
2018-01-28T04:51:45.124Z,0
2018-01-28T04:52:25.741Z,0
2018-01-28T04:53:06.321Z,0
2018-01-28T04:53:46.949Z,0
2018-01-28T04:54:27.561Z,0
2018-01-28T04:55:08.191Z,0
2018-01-28T04:55:48.803Z,0
2018-01-28T04:56:29.375Z,0
2018-01-28T04:57:10.004Z,0
2018-01-28T04:57:50.589Z,0
2018-01-28T04:58:31.210Z,0
2018-01-28T04:59:11.827Z,0
2018-01-28T04:59:52.431Z,0
2018-01-28T05:00:33.065Z,0
2018-01-28T05:01:13.638Z,0
2018-01-28T05:01:54.226Z,0
2018-01-28T05:02:34.893Z,0
2018-01-28T05:03:15.475Z,0
2018-01-28T05:03:56.054Z,0
2018-01-28T05:04:36.655Z,0
2018-01-28T05:05:17.259Z,0
2018-01-28T05:05:57.841Z,0
2018-01-28T05:06:38.455Z,0
2018-01-28T05:07:19.036Z,0
2018-01-28T05:07:59.615Z,0
2018-01-28T05:08:40.206Z,0
2018-01-28T05:09:20.815Z,0
2018-01-28T05:10:01.403Z,0
2018-01-28T05:10:41.989Z,0
2018-01-28T05:11:22.582Z,0
2018-01-28T05:12:03.206Z,0
2018-01-28T05:12:43.794Z,0
2018-01-28T05:13:24.360Z,0
2018-01-28T05:14:04.944Z,0
2018-01-28T05:14:45.512Z,0
2018-01-28T05:15:26.119Z,0
2018-01-28T05:16:06.744Z,0
2018-01-28T05:16:47.321Z,0
2018-01-28T05:17:27.887Z,0
2018-01-28T05:18:08.473Z,0
2018-01-28T05:18:49.047Z,0
2018-01-28T05:19:29.634Z,0
2018-01-28T05:20:10.202Z,0
2018-01-28T05:20:50.787Z,0
2018-01-28T05:21:31.369Z,0
2018-01-28T05:22:11.982Z,0
2018-01-28T05:22:52.572Z,0
2018-01-28T05:23:33.162Z,0
2018-01-28T05:24:13.728Z,0
2018-01-28T05:24:54.356Z,0
2018-01-28T05:25:34.941Z,0
2018-01-28T05:26:15.516Z,0
2018-01-28T05:26:56.136Z,0
2018-01-28T05:27:36.731Z,0
2018-01-28T05:28:17.314Z,0
2018-01-28T05:28:57.891Z,0
2018-01-28T05:29:38.463Z,0
2018-01-28T05:30:19.067Z,0
2018-01-28T05:30:59.646Z,0
2018-01-28T05:31:40.273Z,0
2018-01-28T05:32:20.855Z,0
2018-01-28T05:33:01.465Z,0
2018-01-28T05:33:42.038Z,0
2018-01-28T05:34:22.615Z,0
2018-01-28T05:35:03.258Z,0
2018-01-28T05:35:43.870Z,0
2018-01-28T05:36:24.460Z,0
2018-01-28T05:37:05.071Z,0
2018-01-28T05:37:45.709Z,0
2018-01-28T05:38:26.315Z,0
2018-01-28T05:39:06.922Z,0
2018-01-28T05:39:47.568Z,0
2018-01-28T05:40:28.149Z,0
2018-01-28T05:41:08.754Z,0
2018-01-28T05:41:49.319Z,0
2018-01-28T05:42:29.998Z,0
2018-01-28T05:43:10.610Z,0
2018-01-28T05:43:51.212Z,0
2018-01-28T05:44:31.829Z,0
2018-01-28T05:45:12.480Z,0
2018-01-28T05:45:53.093Z,0
2018-01-28T05:46:33.671Z,0
2018-01-28T05:47:14.262Z,0
2018-01-28T05:47:54.877Z,0
2018-01-28T05:48:35.481Z,0
2018-01-28T05:49:16.086Z,0
2018-01-28T05:49:56.668Z,0
2018-01-28T05:50:37.264Z,0
2018-01-28T05:51:17.861Z,0
2018-01-28T05:51:58.455Z,0
2018-01-28T05:52:39.062Z,0
2018-01-28T05:53:19.670Z,0
2018-01-28T05:54:00.266Z,0
2018-01-28T05:54:40.859Z,0
2018-01-28T05:55:21.460Z,0
2018-01-28T05:56:02.031Z,0
2018-01-28T05:56:42.649Z,0
2018-01-28T05:57:23.233Z,0
2018-01-28T05:58:03.843Z,0
2018-01-28T05:58:44.459Z,0
2018-01-28T05:59:25.085Z,0
2018-01-28T06:00:05.677Z,0
2018-01-28T06:00:46.259Z,0
2018-01-28T06:01:26.866Z,0
2018-01-28T06:02:07.449Z,0
2018-01-28T06:02:48.114Z,0
2018-01-28T06:03:28.686Z,0
2018-01-28T06:04:09.283Z,0
2018-01-28T06:04:49.888Z,0
2018-01-28T06:05:30.495Z,0
2018-01-28T06:06:11.089Z,0
2018-01-28T06:06:51.700Z,0
2018-01-28T06:07:32.294Z,0
2018-01-28T06:08:12.894Z,0
2018-01-28T06:08:53.495Z,0
2018-01-28T06:09:34.097Z,0
2018-01-28T06:10:14.732Z,0
2018-01-28T06:10:55.336Z,0
2018-01-28T06:11:35.942Z,0
2018-01-28T06:12:16.567Z,0
2018-01-28T06:12:57.143Z,0
2018-01-28T06:13:37.753Z,0
2018-01-28T06:14:18.345Z,0
2018-01-28T06:14:58.961Z,0
2018-01-28T06:15:39.559Z,0
2018-01-28T06:16:20.163Z,0
2018-01-28T06:17:00.739Z,0
2018-01-28T06:17:41.318Z,0
2018-01-28T06:18:21.905Z,0
2018-01-28T06:19:02.502Z,0
2018-01-28T06:19:43.113Z,0
2018-01-28T06:20:23.715Z,0
2018-01-28T06:21:04.327Z,0
2018-01-28T06:21:44.908Z,0
2018-01-28T06:22:25.515Z,0
2018-01-28T06:23:06.110Z,0
2018-01-28T06:23:46.713Z,0
2018-01-28T06:24:27.312Z,0
2018-01-28T06:25:07.923Z,0
2018-01-28T06:25:48.637Z,0
2018-01-28T06:26:29.157Z,0
2018-01-28T06:27:09.761Z,0
2018-01-28T06:27:50.377Z,0
2018-01-28T06:28:30.965Z,0
2018-01-28T06:29:11.576Z,0
2018-01-28T06:31:24.375Z,0
2018-01-28T06:32:04.981Z,4
2018-01-28T06:32:45.541Z,4
2018-01-28T06:33:26.119Z,0
2018-01-28T06:34:06.705Z,0
2018-01-28T06:34:47.280Z,4
2018-01-28T06:35:27.868Z,4
2018-01-28T06:36:08.493Z,4
2018-01-28T06:36:49.136Z,8
2018-01-28T06:37:29.752Z,4
2018-01-28T06:38:10.361Z,4
2018-01-28T06:38:50.961Z,4
2018-01-28T06:39:31.549Z,4
2018-01-28T06:40:12.154Z,4
2018-01-28T06:40:52.747Z,8
2018-01-28T06:41:33.338Z,8
2018-01-28T06:42:13.912Z,4
2018-01-28T06:42:54.523Z,12
2018-01-28T06:43:35.104Z,12
2018-01-28T06:44:15.722Z,12
2018-01-28T06:44:56.311Z,8
2018-01-28T06:45:36.913Z,8
2018-01-28T06:46:17.496Z,8
2018-01-28T06:46:58.078Z,12
2018-01-28T06:47:38.639Z,12
2018-01-28T06:48:19.217Z,12
2018-01-28T06:48:59.803Z,12
2018-01-28T06:49:40.415Z,16
2018-01-28T06:50:21.026Z,16
2018-01-28T06:51:01.623Z,16
2018-01-28T06:51:42.220Z,16
2018-01-28T06:52:22.866Z,16
2018-01-28T06:53:03.457Z,12
2018-01-28T06:53:44.065Z,12
2018-01-28T06:54:24.656Z,12
2018-01-28T06:55:05.262Z,16
2018-01-28T06:55:45.847Z,20
2018-01-28T06:56:26.430Z,20
2018-01-28T06:57:07.019Z,16
2018-01-28T06:57:47.629Z,20
2018-01-28T06:58:28.227Z,24
2018-01-28T06:59:08.803Z,20
2018-01-28T06:59:49.409Z,16
2018-01-28T07:00:30.002Z,16
2018-01-28T07:01:10.584Z,16
2018-01-28T07:01:51.188Z,20
2018-01-28T07:02:31.763Z,20
2018-01-28T07:03:12.338Z,24
2018-01-28T07:03:52.933Z,20
2018-01-28T07:04:33.511Z,16
2018-01-28T07:05:14.117Z,20
2018-01-28T07:05:54.691Z,16
2018-01-28T07:06:35.309Z,20
2018-01-28T07:07:15.904Z,24
2018-01-28T07:07:56.501Z,24
2018-01-28T07:08:37.097Z,28
2018-01-28T07:09:17.798Z,32
2018-01-28T07:09:58.387Z,28
2018-01-28T07:10:38.978Z,32
2018-01-28T07:11:19.561Z,36
2018-01-28T07:12:00.156Z,36
2018-01-28T07:12:40.729Z,36
2018-01-28T07:13:21.326Z,36
2018-01-28T07:14:01.937Z,44
2018-01-28T07:14:42.507Z,48
2018-01-28T07:15:23.111Z,40
2018-01-28T07:16:03.709Z,40
2018-01-28T07:16:44.287Z,44
2018-01-28T07:17:24.870Z,52
2018-01-28T07:18:05.463Z,60
2018-01-28T07:18:46.046Z,60
2018-01-28T07:19:26.624Z,72
2018-01-28T07:20:07.189Z,80
2018-01-28T07:20:47.826Z,84
2018-01-28T07:21:28.397Z,92
2018-01-28T07:22:08.991Z,96
2018-01-28T07:22:49.596Z,104
2018-01-28T07:23:30.184Z,100
2018-01-28T07:24:10.776Z,116
2018-01-28T07:24:51.388Z,108
2018-01-28T07:25:31.989Z,92
2018-01-28T07:26:12.598Z,64
2018-01-28T07:26:53.200Z,56
2018-01-28T07:27:33.793Z,68
2018-01-28T07:28:14.407Z,88
2018-01-28T07:28:55.269Z,100
2018-01-28T07:29:36.086Z,108
2018-01-28T07:30:16.682Z,108
2018-01-28T07:30:58.278Z,88
2018-01-28T07:31:39.456Z,80
2018-01-28T07:32:20.258Z,84
2018-01-28T07:33:01.435Z,84
2018-01-28T07:33:42.214Z,88
2018-01-28T07:34:22.793Z,88
2018-01-28T07:35:03.535Z,96
2018-01-28T07:35:44.024Z,100
2018-01-28T07:36:24.637Z,88
2018-01-28T07:37:05.267Z,96
2018-01-28T07:37:45.883Z,100
2018-01-28T07:38:26.458Z,120
2018-01-28T07:39:07.102Z,124
2018-01-28T07:39:47.873Z,100
2018-01-28T07:40:28.494Z,84
2018-01-28T07:41:09.114Z,88
2018-01-28T07:41:49.725Z,92
2018-01-28T07:42:30.310Z,88
2018-01-28T07:43:10.892Z,88
2018-01-28T07:43:51.526Z,84
2018-01-28T07:44:32.058Z,100
2018-01-28T07:45:12.645Z,116
2018-01-28T07:45:53.321Z,140
2018-01-28T07:46:33.979Z,180
2018-01-28T07:47:14.561Z,260
2018-01-28T07:47:55.195Z,252
2018-01-28T07:48:35.784Z,200
2018-01-28T07:49:16.398Z,184
2018-01-28T07:49:57.050Z,172
2018-01-28T07:50:37.734Z,172
2018-01-28T07:51:18.208Z,196
2018-01-28T07:51:58.785Z,188
2018-01-28T07:52:39.392Z,180
2018-01-28T07:53:19.990Z,176
2018-01-28T07:54:00.575Z,160
2018-01-28T07:54:41.216Z,172
2018-01-28T07:55:21.914Z,148
2018-01-28T07:56:02.509Z,156
2018-01-28T07:56:43.126Z,160
2018-01-28T07:57:23.899Z,180
2018-01-28T07:58:04.560Z,152
2018-01-28T07:58:45.247Z,164
2018-01-28T07:59:25.797Z,176
2018-01-28T08:00:06.415Z,232
2018-01-28T08:00:47.098Z,304
2018-01-28T08:01:27.723Z,404
2018-01-28T08:02:08.334Z,432
2018-01-28T08:02:48.916Z,368
2018-01-28T08:03:29.537Z,264
2018-01-28T08:04:10.165Z,232
2018-01-28T08:04:50.793Z,220
2018-01-28T08:05:31.363Z,224
2018-01-28T08:06:12.038Z,252
2018-01-28T08:06:52.529Z,336
2018-01-28T08:07:33.126Z,388
2018-01-28T08:08:13.709Z,440
2018-01-28T08:08:54.269Z,480
2018-01-28T08:09:34.896Z,520
2018-01-28T08:10:15.487Z,516
2018-01-28T08:10:56.085Z,496
2018-01-28T08:11:36.647Z,524
2018-01-28T08:12:17.234Z,516
2018-01-28T08:12:57.835Z,572
2018-01-28T08:13:38.444Z,688
2018-01-28T08:14:19.045Z,732
2018-01-28T08:14:59.648Z,920
2018-01-28T08:15:40.234Z,900
2018-01-28T08:16:20.798Z,892
2018-01-28T08:17:01.385Z,876
2018-01-28T08:17:42.001Z,896
2018-01-28T08:18:22.549Z,828
2018-01-28T08:19:03.155Z,856
2018-01-28T08:19:43.734Z,848
2018-01-28T08:20:24.295Z,756
2018-01-28T08:21:04.865Z,876
2018-01-28T08:21:45.488Z,976
2018-01-28T08:22:26.037Z,948
2018-01-28T08:23:06.640Z,740
2018-01-28T08:23:47.200Z,644
2018-01-28T08:24:27.785Z,496
2018-01-28T08:25:08.349Z,384
2018-01-28T08:25:48.919Z,344
2018-01-28T08:26:29.500Z,308
2018-01-28T08:27:10.067Z,284
2018-01-28T08:27:50.630Z,288
2018-01-28T08:28:31.211Z,308
2018-01-28T08:29:11.794Z,304
2018-01-28T08:29:52.406Z,268
2018-01-28T08:30:32.992Z,276
2018-01-28T08:31:13.574Z,340
2018-01-28T08:31:54.163Z,472
2018-01-28T08:32:34.736Z,476
2018-01-28T08:33:15.353Z,328
2018-01-28T08:33:55.917Z,324
2018-01-28T08:34:36.476Z,324
2018-01-28T08:35:17.073Z,324
2018-01-28T08:35:57.635Z,260
2018-01-28T08:36:38.218Z,220
2018-01-28T08:37:18.787Z,272
2018-01-28T08:37:59.363Z,328
2018-01-28T08:38:39.975Z,284
2018-01-28T08:39:20.558Z,308
2018-01-28T08:40:01.136Z,300
2018-01-28T08:40:41.711Z,328
2018-01-28T08:41:22.299Z,400
2018-01-28T08:42:02.958Z,464
2018-01-28T08:42:43.543Z,508
2018-01-28T08:43:24.132Z,576
2018-01-28T08:44:04.728Z,440
2018-01-28T08:44:45.340Z,412
2018-01-28T08:45:25.964Z,480
2018-01-28T08:46:06.563Z,440
2018-01-28T08:46:47.161Z,456
2018-01-28T08:47:27.771Z,572
2018-01-28T08:48:08.375Z,608
2018-01-28T08:48:48.979Z,512
2018-01-28T08:49:29.574Z,560
2018-01-28T08:50:10.193Z,504
2018-01-28T08:50:50.785Z,540
2018-01-28T08:51:31.373Z,564
2018-01-28T08:52:11.964Z,536
2018-01-28T08:52:52.573Z,448
2018-01-28T08:53:33.167Z,412
2018-01-28T08:54:13.747Z,488
2018-01-28T08:54:54.361Z,576
2018-01-28T08:55:34.989Z,544
2018-01-28T08:56:15.612Z,572
2018-01-28T08:56:56.195Z,652
2018-01-28T08:57:36.788Z,548
2018-01-28T08:58:17.778Z,508
2018-01-28T08:58:58.352Z,632
2018-01-28T08:59:39.107Z,604
2018-01-28T09:00:19.693Z,676
2018-01-28T09:01:00.272Z,716
2018-01-28T09:01:40.849Z,888
2018-01-28T09:02:21.452Z,784
2018-01-28T09:03:02.019Z,688
2018-01-28T09:03:42.597Z,616
2018-01-28T09:04:23.167Z,596
2018-01-28T09:05:03.736Z,840
2018-01-28T09:05:44.598Z,1136
2018-01-28T09:06:25.323Z,1216
2018-01-28T09:07:05.914Z,1020
2018-01-28T09:07:46.541Z,1012
2018-01-28T09:08:27.130Z,1036
2018-01-28T09:09:07.742Z,1132
2018-01-28T09:09:48.332Z,1160
2018-01-28T09:10:28.928Z,1252
2018-01-28T09:11:09.509Z,1344
2018-01-28T09:11:50.124Z,1336
2018-01-28T09:12:31.855Z,1392
2018-01-28T09:13:12.928Z,1500
2018-01-28T09:13:53.563Z,1516
2018-01-28T09:14:34.609Z,1504
2018-01-28T09:15:15.502Z,1472
2018-01-28T09:15:56.755Z,1680
2018-01-28T09:16:38.173Z,1432
2018-01-28T09:17:18.940Z,1212
2018-01-28T09:17:59.643Z,1080
2018-01-28T09:18:40.244Z,1224
2018-01-28T09:19:20.823Z,1396
2018-01-28T09:20:01.416Z,1380
2018-01-28T09:20:42.007Z,1308
2018-01-28T09:21:22.615Z,1516
2018-01-28T09:22:03.202Z,1228
2018-01-28T09:22:43.847Z,1580
2018-01-28T09:23:24.475Z,2168
2018-01-28T09:24:05.064Z,1492
2018-01-28T09:24:45.633Z,1668
2018-01-28T09:25:26.226Z,2324
2018-01-28T09:26:06.840Z,1504
2018-01-28T09:26:47.436Z,1628
2018-01-28T09:27:28.042Z,1368
2018-01-28T09:28:08.654Z,1424
2018-01-28T09:28:49.258Z,1988
2018-01-28T09:29:29.837Z,2576
2018-01-28T09:30:10.440Z,2424
2018-01-28T09:30:51.046Z,2696
2018-01-28T09:31:31.659Z,2608
2018-01-28T09:32:12.277Z,2324
2018-01-28T09:32:52.871Z,2380
2018-01-28T09:33:33.498Z,2348
2018-01-28T09:34:14.141Z,2160
2018-01-28T09:34:54.719Z,2600
2018-01-28T09:35:35.341Z,3232
2018-01-28T09:36:15.957Z,3220
2018-01-28T09:36:56.549Z,3568
2018-01-28T09:37:37.136Z,2868
2018-01-28T09:38:17.732Z,2316
2018-01-28T09:38:58.336Z,2768
2018-01-28T09:39:38.937Z,3352
2018-01-28T09:40:19.533Z,4272
2018-01-28T09:41:00.140Z,7532
2018-01-28T09:41:40.746Z,7856
2018-01-28T09:42:21.349Z,6948
2018-01-28T09:43:01.953Z,6532
2018-01-28T09:43:42.558Z,5744
2018-01-28T09:44:23.148Z,3736
2018-01-28T09:45:03.729Z,4928
2018-01-28T09:45:44.350Z,5624
2018-01-28T09:46:24.904Z,4828
2018-01-28T09:47:05.498Z,3520
2018-01-28T09:47:46.089Z,2972
2018-01-28T09:48:26.967Z,3044
2018-01-28T09:49:07.607Z,3124
2018-01-28T09:49:48.175Z,3368
2018-01-28T09:50:28.789Z,3880
2018-01-28T09:51:09.414Z,4380
2018-01-28T09:51:49.997Z,4456
2018-01-28T09:52:30.605Z,4284
2018-01-28T09:53:11.191Z,4196
2018-01-28T09:53:51.783Z,4748
2018-01-28T09:54:32.405Z,4652
2018-01-28T09:55:13.009Z,3860
2018-01-28T09:55:53.652Z,3412
2018-01-28T09:56:34.247Z,3480
2018-01-28T09:57:14.832Z,3504
2018-01-28T09:57:55.417Z,3672
2018-01-28T09:58:36.014Z,3748
2018-01-28T09:59:16.595Z,3880
2018-01-28T09:59:57.211Z,3892
2018-01-28T10:00:37.821Z,3724
2018-01-28T10:01:18.412Z,3256
2018-01-28T10:01:59.000Z,3060
2018-01-28T10:02:39.616Z,2928
2018-01-28T10:03:20.203Z,3156
2018-01-28T10:04:00.840Z,3172
2018-01-28T10:04:41.419Z,3480
2018-01-28T10:05:22.042Z,3648
2018-01-28T10:06:02.623Z,3652
2018-01-28T10:06:43.221Z,3532
2018-01-28T10:07:23.807Z,3316
2018-01-28T10:08:04.413Z,3332
2018-01-28T10:08:45.028Z,3320
2018-01-28T10:09:25.638Z,3108
2018-01-28T10:10:06.241Z,3052
2018-01-28T10:10:46.837Z,3052
2018-01-28T10:11:27.420Z,3004
2018-01-28T10:12:08.012Z,3032
2018-01-28T10:12:48.612Z,3204
2018-01-28T10:13:29.250Z,3612
2018-01-28T10:14:09.867Z,4128
2018-01-28T10:14:50.447Z,4432
2018-01-28T10:15:31.089Z,4316
2018-01-28T10:16:11.684Z,4248
2018-01-28T10:16:52.268Z,4348
2018-01-28T10:17:32.865Z,4596
2018-01-28T10:18:13.489Z,4548
2018-01-28T10:18:54.074Z,4420
2018-01-28T10:19:34.664Z,4308
2018-01-28T10:20:15.268Z,4340
2018-01-28T10:20:55.857Z,4368
2018-01-28T10:21:36.469Z,4332
2018-01-28T10:22:17.072Z,4068
2018-01-28T10:22:57.669Z,3748
2018-01-28T10:23:38.288Z,3440
2018-01-28T10:24:18.870Z,3292
2018-01-28T10:24:59.473Z,3060
2018-01-28T10:25:40.053Z,3336
2018-01-28T10:26:20.658Z,3440
2018-01-28T10:27:01.432Z,3332
2018-01-28T10:27:42.068Z,3144
2018-01-28T10:28:22.674Z,2904
2018-01-28T10:29:03.293Z,2644
2018-01-28T10:29:43.874Z,2716
2018-01-28T10:30:24.481Z,2968
2018-01-28T10:31:05.140Z,3088
2018-01-28T10:31:45.724Z,3096
2018-01-28T10:32:26.374Z,3048
2018-01-28T10:33:06.999Z,2956
2018-01-28T10:33:47.572Z,2816
2018-01-28T10:34:28.178Z,2688
2018-01-28T10:35:08.761Z,2532
2018-01-28T10:35:49.352Z,2528
2018-01-28T10:36:29.939Z,2476
2018-01-28T10:37:10.549Z,2384
2018-01-28T10:37:51.151Z,2272
2018-01-28T10:38:31.742Z,2340
2018-01-28T10:39:12.323Z,2436
2018-01-28T10:39:52.902Z,2504
2018-01-28T10:40:33.505Z,2580
2018-01-28T10:41:14.075Z,2212
2018-01-28T10:41:54.671Z,1940
2018-01-28T10:42:35.272Z,1852
2018-01-28T10:43:15.867Z,1860
2018-01-28T10:43:56.481Z,1668
2018-01-28T10:44:37.079Z,1608
2018-01-28T10:45:17.682Z,1744
2018-01-28T10:45:58.285Z,2044
2018-01-28T10:46:38.877Z,1964
2018-01-28T10:47:19.459Z,1780
2018-01-28T10:48:00.070Z,1664
2018-01-28T10:48:40.663Z,1492
2018-01-28T10:49:21.261Z,1360
2018-01-28T10:50:01.831Z,1492
2018-01-28T10:50:42.412Z,1700
2018-01-28T10:51:22.998Z,1744
2018-01-28T10:52:03.601Z,1584
2018-01-28T10:52:44.197Z,1440
2018-01-28T10:53:24.789Z,1456
2018-01-28T10:54:05.390Z,1560
2018-01-28T10:54:45.998Z,1316
2018-01-28T10:55:26.608Z,1248
2018-01-28T10:56:07.200Z,1128
2018-01-28T10:56:47.795Z,1188
2018-01-28T10:57:28.396Z,1248
2018-01-28T10:58:09.032Z,1356
2018-01-28T10:58:49.616Z,1216
2018-01-28T10:59:30.197Z,1368
2018-01-28T11:00:10.794Z,1368
2018-01-28T11:00:51.372Z,1312
2018-01-28T11:01:31.954Z,1124
2018-01-28T11:02:12.539Z,1060
2018-01-28T11:02:53.193Z,1164
2018-01-28T11:03:33.782Z,1172
2018-01-28T11:04:14.406Z,1264
2018-01-28T11:04:55.008Z,1300
2018-01-28T11:05:35.609Z,1264
2018-01-28T11:06:16.247Z,1124
2018-01-28T11:06:56.829Z,1076
2018-01-28T11:07:37.418Z,964
2018-01-28T11:08:18.014Z,1000
2018-01-28T11:08:58.595Z,1056
2018-01-28T11:09:39.178Z,1080
2018-01-28T11:10:19.780Z,1060
2018-01-28T11:11:00.372Z,1056
2018-01-28T11:11:40.985Z,1156
2018-01-28T11:12:21.571Z,1244
2018-01-28T11:13:02.148Z,1280
2018-01-28T11:13:42.761Z,1284
2018-01-28T11:14:23.391Z,1248
2018-01-28T11:15:03.970Z,1232
2018-01-28T11:15:44.587Z,1216
2018-01-28T11:16:25.186Z,1252
2018-01-28T11:17:05.773Z,1260
2018-01-28T11:17:46.386Z,1248
2018-01-28T11:18:26.996Z,1368
2018-01-28T11:19:07.619Z,1436
2018-01-28T11:19:48.219Z,1404
2018-01-28T11:20:28.817Z,1332
2018-01-28T11:21:09.407Z,1320
2018-01-28T11:21:50.094Z,1276
2018-01-28T11:22:30.731Z,1240
2018-01-28T11:23:11.328Z,1284
2018-01-28T11:23:51.932Z,1416
2018-01-28T11:24:32.540Z,1504
2018-01-28T11:25:13.190Z,1596
2018-01-28T11:25:53.791Z,1744
2018-01-28T11:26:34.375Z,1872
2018-01-28T11:27:14.981Z,2092
2018-01-28T11:27:55.544Z,2184
2018-01-28T11:28:36.143Z,2348
2018-01-28T11:29:16.737Z,2304
2018-01-28T11:29:57.372Z,2180
2018-01-28T11:30:37.962Z,2144
2018-01-28T11:31:18.600Z,1972
2018-01-28T11:31:59.218Z,1824
2018-01-28T11:32:39.798Z,1736
2018-01-28T11:33:20.383Z,1592
2018-01-28T11:34:00.986Z,1396
2018-01-28T11:34:41.600Z,1236
2018-01-28T11:35:22.178Z,1172
2018-01-28T11:36:02.791Z,1084
2018-01-28T11:36:43.439Z,1088
2018-01-28T11:37:24.034Z,1108
2018-01-28T11:38:04.730Z,1172
2018-01-28T11:38:45.345Z,1204
2018-01-28T11:39:25.977Z,1180
2018-01-28T11:40:06.577Z,1264
2018-01-28T11:40:47.255Z,1256
2018-01-28T11:41:27.844Z,1428
2018-01-28T11:42:08.454Z,1472
2018-01-28T11:42:49.104Z,1552
2018-01-28T11:43:29.762Z,1660
2018-01-28T11:44:10.348Z,1568
2018-01-28T11:44:50.932Z,1568
2018-01-28T11:45:31.531Z,1452
2018-01-28T11:46:12.158Z,1380
2018-01-28T11:46:52.740Z,1340
2018-01-28T11:47:33.351Z,1376
2018-01-28T11:48:13.947Z,1184
2018-01-28T11:48:54.553Z,1160
2018-01-28T11:49:35.127Z,1356
2018-01-28T11:50:15.693Z,1432
2018-01-28T11:50:56.266Z,1436
2018-01-28T11:51:36.855Z,1180
2018-01-28T11:52:17.417Z,996
2018-01-28T11:52:58.016Z,764
2018-01-28T11:53:38.788Z,672
2018-01-28T11:54:19.384Z,672
2018-01-28T11:55:00.017Z,828
2018-01-28T11:55:40.591Z,904
2018-01-28T11:56:21.218Z,852
2018-01-28T11:57:01.796Z,724
2018-01-28T11:57:42.365Z,636
2018-01-28T11:58:22.948Z,512
2018-01-28T11:59:03.568Z,452
2018-01-28T11:59:44.156Z,532
2018-01-28T12:00:24.950Z,612
2018-01-28T12:01:06.022Z,664
2018-01-28T12:01:47.074Z,892
2018-01-28T12:02:28.157Z,1228
2018-01-28T12:03:08.504Z,1348
2018-01-28T12:03:49.077Z,1520
2018-01-28T12:04:29.965Z,1760
2018-01-28T12:05:10.611Z,1928
2018-01-28T12:05:52.940Z,2008
2018-01-28T12:06:33.560Z,1760
2018-01-28T12:07:14.141Z,1676
2018-01-28T12:07:54.727Z,1672
2018-01-28T12:08:35.334Z,1480
2018-01-28T12:09:16.350Z,1476
2018-01-28T12:09:57.036Z,1468
2018-01-28T12:10:37.776Z,1508
2018-01-28T12:11:18.390Z,1656
2018-01-28T12:11:59.188Z,1736
2018-01-28T12:12:39.786Z,1800
2018-01-28T12:13:20.378Z,1784
2018-01-28T12:14:01.086Z,1740
2018-01-28T12:14:41.702Z,1576
2018-01-28T12:15:22.310Z,1440
2018-01-28T12:16:02.922Z,1348
2018-01-28T12:16:43.507Z,1224
2018-01-28T12:17:24.085Z,1128
2018-01-28T12:18:04.682Z,1152
2018-01-28T12:18:45.249Z,1104
2018-01-28T12:19:25.828Z,1020
2018-01-28T12:20:06.444Z,964
2018-01-28T12:20:47.037Z,920
2018-01-28T12:21:27.621Z,828
2018-01-28T12:22:08.204Z,704
2018-01-28T12:22:48.797Z,636
2018-01-28T12:23:29.384Z,632
2018-01-28T12:24:09.957Z,440
2018-01-28T12:24:50.544Z,308
2018-01-28T12:25:31.135Z,272
2018-01-28T12:26:11.739Z,368
2018-01-28T12:26:52.340Z,372
2018-01-28T12:27:32.926Z,408
2018-01-28T12:28:13.508Z,288
2018-01-28T12:28:54.094Z,284
2018-01-28T12:29:34.684Z,280
2018-01-28T12:30:15.280Z,284
2018-01-28T12:30:55.884Z,348
2018-01-28T12:31:36.504Z,384
2018-01-28T12:32:17.060Z,416
2018-01-28T12:32:57.662Z,352
2018-01-28T12:33:38.247Z,280
2018-01-28T12:34:18.819Z,260
2018-01-28T12:34:59.440Z,264
2018-01-28T12:35:40.379Z,320
2018-01-28T12:36:21.273Z,312
2018-01-28T12:37:02.225Z,348
2018-01-28T12:37:43.203Z,328
2018-01-28T12:38:24.029Z,312
2018-01-28T12:39:04.959Z,316
2018-01-28T12:39:45.897Z,368
2018-01-28T12:40:26.737Z,436
2018-01-28T12:41:07.468Z,456
2018-01-28T12:41:48.263Z,544
2018-01-28T12:42:29.040Z,596
2018-01-28T12:43:09.816Z,560
2018-01-28T12:43:50.687Z,544
2018-01-28T12:44:31.279Z,580
2018-01-28T12:45:11.916Z,460
2018-01-28T12:45:52.818Z,496
2018-01-28T12:46:33.864Z,612
2018-01-28T12:47:14.795Z,516
2018-01-28T12:47:55.735Z,740
2018-01-28T12:48:36.639Z,912
2018-01-28T12:49:17.494Z,820
2018-01-28T12:49:58.240Z,736
2018-01-28T12:50:39.028Z,632
2018-01-28T12:51:19.626Z,736
2018-01-28T12:52:00.200Z,912
2018-01-28T12:52:40.785Z,1120
2018-01-28T12:53:21.449Z,1068
2018-01-28T12:54:02.031Z,1020
2018-01-28T12:54:42.626Z,960
2018-01-28T12:55:23.245Z,916
2018-01-28T12:56:03.870Z,840
2018-01-28T12:56:44.470Z,684
2018-01-28T12:57:25.056Z,672
2018-01-28T12:58:05.716Z,744
2018-01-28T12:58:46.260Z,776
2018-01-28T12:59:26.855Z,812
2018-01-28T13:00:07.606Z,824
2018-01-28T13:00:48.179Z,668
2018-01-28T13:01:28.766Z,564
2018-01-28T13:02:09.376Z,600
2018-01-28T13:02:49.951Z,596
2018-01-28T13:03:30.543Z,620
2018-01-28T13:04:11.121Z,712
2018-01-28T13:04:51.711Z,708
2018-01-28T13:05:32.321Z,680
2018-01-28T13:06:12.927Z,648
2018-01-28T13:06:53.516Z,648
2018-01-28T13:07:34.096Z,660